createdAt,value
2023-03-25T00:00:28.117Z,985.12
2023-03-25T00:01:28.101Z,985.18
2023-03-25T00:02:28.176Z,985.14
2023-03-25T00:03:28.102Z,985.10
2023-03-25T00:04:28.098Z,985.11
2023-03-25T00:05:28.036Z,985.03
2023-03-25T00:06:28.019Z,985.04
2023-03-25T00:07:28.006Z,985.04
2023-03-25T00:08:27.986Z,985.14
2023-03-25T00:09:27.973Z,985.19
2023-03-25T00:10:27.956Z,985.14
2023-03-25T00:11:27.941Z,985.19
2023-03-25T00:12:27.922Z,985.17
2023-03-25T00:13:27.913Z,985.21
2023-03-25T00:14:27.891Z,985.27
2023-03-25T00:15:27.875Z,985.26
2023-03-25T00:16:27.880Z,985.31
2023-03-25T00:17:27.872Z,985.29
2023-03-25T00:18:27.826Z,985.37
2023-03-25T00:19:27.811Z,985.31
2023-03-25T00:20:27.796Z,985.32
2023-03-25T00:21:27.780Z,985.40
2023-03-25T00:22:27.760Z,985.53
2023-03-25T00:23:27.751Z,985.53
2023-03-25T00:24:27.737Z,985.61
2023-03-25T00:25:27.723Z,985.62
2023-03-25T00:26:27.687Z,985.75
2023-03-25T00:27:27.677Z,985.74
2023-03-25T00:28:27.666Z,985.76
2023-03-25T00:29:27.647Z,985.86
2023-03-25T00:30:27.647Z,985.89
2023-03-25T00:31:27.610Z,985.91
2023-03-25T00:32:27.608Z,985.87
2023-03-25T00:33:27.583Z,985.92
2023-03-25T00:34:27.560Z,985.87
2023-03-25T00:35:27.557Z,985.78
2023-03-25T00:36:27.536Z,985.85
2023-03-25T00:37:27.521Z,985.81
2023-03-25T00:38:27.494Z,985.80
2023-03-25T00:39:27.480Z,985.83
2023-03-25T00:40:27.467Z,985.82
2023-03-25T00:41:27.478Z,985.80
2023-03-25T00:42:27.432Z,985.76
2023-03-25T00:43:27.421Z,985.82
2023-03-25T00:44:27.401Z,985.82
2023-03-25T00:45:27.393Z,985.80
2023-03-25T00:46:27.417Z,985.80
2023-03-25T00:47:27.375Z,985.84
2023-03-25T00:48:27.341Z,985.84
2023-03-25T00:49:27.314Z,985.81
2023-03-25T00:50:27.302Z,985.81
2023-03-25T00:51:27.283Z,985.86
2023-03-25T00:52:27.271Z,985.83
2023-03-25T00:53:27.250Z,985.81
2023-03-25T00:54:27.241Z,985.80
2023-03-25T00:55:27.214Z,985.75
2023-03-25T00:56:27.275Z,985.70
2023-03-25T00:57:27.185Z,985.72
2023-03-25T00:58:27.176Z,985.64
2023-03-25T00:59:27.161Z,985.68
2023-03-25T01:00:27.147Z,985.67
2023-03-25T01:01:27.263Z,985.68
2023-03-25T01:02:27.163Z,985.67
2023-03-25T01:03:27.162Z,985.64
2023-03-25T01:04:27.075Z,985.63
2023-03-25T01:05:27.056Z,985.62
2023-03-25T01:06:27.036Z,985.64
2023-03-25T01:07:27.021Z,985.59
2023-03-25T01:08:27.004Z,985.60
2023-03-25T01:09:26.989Z,985.56
2023-03-25T01:10:26.968Z,985.52
2023-03-25T01:11:26.951Z,985.51
2023-03-25T01:12:26.935Z,985.49
2023-03-25T01:13:26.919Z,985.53
2023-03-25T01:14:26.905Z,985.58
2023-03-25T01:15:26.888Z,985.63
2023-03-25T01:16:26.932Z,985.58
2023-03-25T01:17:26.915Z,985.72
2023-03-25T01:18:26.839Z,985.68
2023-03-25T01:19:26.841Z,985.74
2023-03-25T01:20:26.809Z,985.64
2023-03-25T01:21:26.803Z,985.67
2023-03-25T01:22:26.772Z,985.60
2023-03-25T01:23:26.753Z,985.62
2023-03-25T01:24:26.737Z,985.63
2023-03-25T01:25:26.729Z,985.63
2023-03-25T01:26:26.699Z,985.57
2023-03-25T01:27:26.686Z,985.59
2023-03-25T01:28:26.667Z,985.63
2023-03-25T01:29:26.655Z,985.68
2023-03-25T01:30:26.634Z,985.65
2023-03-25T01:31:26.652Z,985.63
2023-03-25T01:32:26.630Z,985.72
2023-03-25T01:33:26.584Z,985.63
2023-03-25T01:34:26.590Z,985.66
2023-03-25T01:35:26.546Z,985.68
2023-03-25T01:36:26.534Z,985.68
2023-03-25T01:37:35.236Z,985.66
2023-03-25T01:39:32.014Z,985.65
2023-03-25T01:40:31.932Z,985.63
2023-03-25T01:41:42.693Z,985.62
2023-03-25T01:42:31.892Z,985.65
2023-03-25T01:43:31.915Z,985.62
2023-03-25T01:44:31.879Z,985.63
2023-03-25T01:45:31.849Z,985.59
2023-03-25T01:46:31.898Z,985.60
2023-03-25T01:47:31.846Z,985.58
2023-03-25T01:48:31.802Z,985.52
2023-03-25T01:49:31.778Z,985.51
2023-03-25T01:50:31.760Z,985.54
2023-03-25T01:51:31.743Z,985.49
2023-03-25T01:52:31.723Z,985.52
2023-03-25T01:53:31.712Z,985.47
2023-03-25T01:54:31.704Z,985.39
2023-03-25T01:55:31.676Z,985.43
2023-03-25T01:56:31.727Z,985.44
2023-03-25T01:57:31.658Z,985.39
2023-03-25T01:58:31.629Z,985.46
2023-03-25T01:59:31.609Z,985.38
2023-03-25T02:00:31.633Z,985.34
2023-03-25T02:01:31.594Z,985.32
2023-03-25T02:02:31.568Z,985.30
2023-03-25T02:03:31.628Z,985.30
2023-03-25T02:04:31.538Z,985.24
2023-03-25T02:05:31.515Z,985.21
2023-03-25T02:06:31.495Z,985.24
2023-03-25T02:07:31.495Z,985.24
2023-03-25T02:08:31.461Z,985.28
2023-03-25T02:09:31.452Z,985.23
2023-03-25T02:10:31.423Z,985.30
2023-03-25T02:11:31.426Z,985.29
2023-03-25T02:12:31.406Z,985.24
2023-03-25T02:13:31.377Z,985.25
2023-03-25T02:14:31.378Z,985.28
2023-03-25T02:15:31.342Z,985.34
2023-03-25T02:16:31.381Z,985.32
2023-03-25T02:17:31.327Z,985.30
2023-03-25T02:18:31.291Z,985.37
2023-03-25T02:19:31.282Z,985.32
2023-03-25T02:20:31.267Z,985.37
2023-03-25T02:21:31.240Z,985.34
2023-03-25T02:22:31.221Z,985.32
2023-03-25T02:23:31.212Z,985.39
2023-03-25T02:24:31.190Z,985.35
2023-03-25T02:25:31.178Z,985.40
2023-03-25T02:26:31.157Z,985.39
2023-03-25T02:27:31.147Z,985.40
2023-03-25T02:28:31.130Z,985.42
2023-03-25T02:29:31.146Z,985.44
2023-03-25T02:30:31.100Z,985.38
2023-03-25T02:31:31.095Z,985.48
2023-03-25T02:32:31.104Z,985.47
2023-03-25T02:33:31.052Z,985.50
2023-03-25T02:34:31.032Z,985.48
2023-03-25T02:38:28.532Z,985.60
2023-03-25T02:39:28.617Z,985.52
2023-03-25T02:40:28.369Z,985.49
2023-03-25T02:41:28.394Z,985.49
2023-03-25T02:42:28.348Z,985.44
2023-03-25T02:43:28.398Z,985.45
2023-03-25T02:44:28.330Z,985.46
2023-03-25T02:45:28.260Z,985.37
2023-03-25T02:46:28.302Z,985.33
2023-03-25T02:49:53.309Z,985.34
2023-03-25T02:50:53.214Z,985.29
2023-03-25T02:54:09.200Z,985.37
2023-03-25T02:55:09.129Z,985.38
2023-03-25T02:56:09.227Z,985.40
2023-03-25T02:57:09.211Z,985.45
2023-03-25T02:58:09.110Z,985.47
2023-03-25T02:59:09.068Z,985.47
2023-03-25T03:00:09.042Z,985.47
2023-03-25T03:01:09.048Z,985.50
2023-03-25T03:02:09.050Z,985.52
2023-03-25T03:03:09.144Z,985.47
2023-03-25T03:04:08.971Z,985.51
2023-03-25T03:05:22.217Z,985.51
2023-03-25T03:07:23.199Z,985.50
2023-03-25T03:08:22.984Z,985.34
2023-03-25T03:09:23.070Z,985.40
2023-03-25T03:10:22.926Z,985.33
2023-03-25T03:11:22.931Z,985.33
2023-03-25T03:12:22.942Z,985.40
2023-03-25T03:13:23.819Z,985.32
2023-03-25T03:14:23.412Z,985.37
2023-03-25T03:15:22.832Z,985.36
2023-03-25T03:16:22.821Z,985.31
2023-03-25T03:17:22.821Z,985.34
2023-03-25T03:18:22.834Z,985.34
2023-03-25T03:19:22.762Z,985.37
2023-03-25T03:20:22.726Z,985.35
2023-03-25T03:21:22.711Z,985.39
2023-03-25T03:22:22.714Z,985.37
2023-03-25T03:23:22.691Z,985.39
2023-03-25T03:24:22.652Z,985.30
2023-03-25T03:25:22.643Z,985.29
2023-03-25T03:26:22.619Z,985.28
2023-03-25T03:27:22.598Z,985.24
2023-03-25T03:28:22.610Z,985.24
2023-03-25T03:29:22.564Z,985.12
2023-03-25T03:30:22.563Z,985.14
2023-03-25T03:31:47.533Z,985.19
2023-03-25T03:32:22.574Z,985.13
2023-03-25T03:33:22.495Z,985.18
2023-03-25T03:34:22.476Z,985.16
2023-03-25T03:35:22.502Z,985.11
2023-03-25T03:36:22.441Z,985.21
2023-03-25T03:37:22.426Z,985.12
2023-03-25T03:38:22.408Z,985.16
2023-03-25T03:39:22.402Z,985.15
2023-03-25T03:40:22.372Z,985.21
2023-03-25T03:41:22.455Z,985.15
2023-03-25T03:42:22.336Z,985.09
2023-03-25T03:43:22.316Z,985.21
2023-03-25T03:44:22.301Z,985.10
2023-03-25T03:45:22.327Z,985.13
2023-03-25T03:46:22.305Z,985.11
2023-03-25T03:47:22.261Z,985.25
2023-03-25T03:48:22.238Z,985.20
2023-03-25T03:49:22.217Z,985.07
2023-03-25T03:50:22.201Z,985.17
2023-03-25T03:51:22.176Z,985.12
2023-03-25T03:52:22.162Z,985.22
2023-03-25T03:53:22.147Z,985.16
2023-03-25T03:54:22.125Z,985.26
2023-03-25T03:55:22.117Z,985.37
2023-03-25T03:56:22.096Z,985.33
2023-03-25T03:57:22.085Z,985.27
2023-03-25T03:58:22.053Z,985.20
2023-03-25T03:59:22.034Z,985.29
2023-03-25T04:00:22.019Z,985.34
2023-03-25T04:01:22.003Z,985.29
2023-03-25T04:02:22.006Z,985.26
2023-03-25T04:03:21.999Z,985.32
2023-03-25T04:04:21.946Z,985.33
2023-03-25T04:05:21.933Z,985.39
2023-03-25T04:06:21.912Z,985.33
2023-03-25T04:07:21.918Z,985.29
2023-03-25T04:08:21.876Z,985.36
2023-03-25T04:09:21.862Z,985.31
2023-03-25T04:10:21.847Z,985.37
2023-03-25T04:11:21.822Z,985.39
2023-03-25T04:12:21.813Z,985.37
2023-03-25T04:13:21.816Z,985.42
2023-03-25T04:14:21.770Z,985.54
2023-03-25T04:15:21.751Z,985.49
2023-03-25T04:16:21.774Z,985.49
2023-03-25T04:17:21.730Z,985.53
2023-03-25T04:18:21.701Z,985.44
2023-03-25T04:19:21.682Z,985.54
2023-03-25T04:20:21.669Z,985.51
2023-03-25T04:21:21.651Z,985.55
2023-03-25T04:22:21.634Z,985.59
2023-03-25T04:23:21.613Z,985.56
2023-03-25T04:24:21.609Z,985.54
2023-03-25T04:25:21.799Z,985.57
2023-03-25T04:26:21.568Z,985.55
2023-03-25T04:27:21.571Z,985.58
2023-03-25T04:28:21.528Z,985.52
2023-03-25T04:29:21.514Z,985.56
2023-03-25T04:30:21.488Z,985.46
2023-03-25T04:31:21.487Z,985.48
2023-03-25T04:32:21.466Z,985.52
2023-03-25T04:33:21.442Z,985.56
2023-03-25T04:34:21.424Z,985.58
2023-03-25T04:35:21.408Z,985.46
2023-03-25T04:36:21.447Z,985.56
2023-03-25T04:37:21.375Z,985.65
2023-03-25T04:38:21.381Z,985.63
2023-03-25T04:39:21.337Z,985.69
2023-03-25T04:40:21.327Z,985.63
2023-03-25T04:41:21.348Z,985.67
2023-03-25T04:42:21.288Z,985.70
2023-03-25T04:43:21.269Z,985.77
2023-03-25T04:44:21.252Z,985.79
2023-03-25T04:45:21.276Z,985.79
2023-03-25T04:46:21.275Z,985.66
2023-03-25T04:47:21.238Z,985.74
2023-03-25T04:48:21.186Z,985.85
2023-03-25T04:49:21.302Z,985.80
2023-03-25T04:50:21.147Z,985.76
2023-03-25T04:51:21.129Z,985.77
2023-03-25T04:52:21.117Z,985.65
2023-03-25T04:53:21.097Z,985.70
2023-03-25T04:54:21.083Z,985.65
2023-03-25T04:55:21.058Z,985.69
2023-03-25T04:56:21.047Z,985.79
2023-03-25T04:57:21.036Z,985.71
2023-03-25T04:58:21.012Z,985.75
2023-03-25T04:59:20.995Z,985.73
2023-03-25T05:00:20.976Z,985.84
2023-03-25T05:01:21.089Z,985.91
2023-03-25T05:02:20.938Z,985.86
2023-03-25T05:03:20.917Z,985.90
2023-03-25T05:04:20.971Z,985.81
2023-03-25T05:05:20.884Z,985.91
2023-03-25T05:06:20.864Z,985.81
2023-03-25T05:07:20.846Z,985.87
2023-03-25T05:08:20.843Z,985.84
2023-03-25T05:09:20.828Z,985.96
2023-03-25T05:10:20.804Z,985.93
2023-03-25T05:11:20.779Z,986.03
2023-03-25T05:12:20.764Z,986.03
2023-03-25T05:13:20.748Z,985.93
2023-03-25T05:14:20.727Z,985.97
2023-03-25T05:15:20.714Z,986.01
2023-03-25T05:16:20.715Z,986.03
2023-03-25T05:17:20.712Z,985.94
2023-03-25T05:18:20.656Z,986.01
2023-03-25T05:19:20.651Z,985.91
2023-03-25T05:20:20.621Z,985.97
2023-03-25T05:21:20.606Z,986.00
2023-03-25T05:22:20.597Z,985.98
2023-03-25T05:23:20.568Z,986.02
2023-03-25T05:24:20.564Z,985.95
2023-03-25T05:25:20.532Z,985.92
2023-03-25T05:26:20.519Z,985.99
2023-03-25T05:27:20.530Z,986.02
2023-03-25T05:28:20.492Z,986.04
2023-03-25T05:29:20.463Z,986.00
2023-03-25T05:30:20.447Z,986.05
2023-03-25T05:31:20.493Z,986.04
2023-03-25T05:32:20.412Z,986.05
2023-03-25T05:33:20.407Z,986.02
2023-03-25T05:34:20.376Z,986.04
2023-03-25T05:35:20.378Z,986.04
2023-03-25T05:36:20.341Z,986.07
2023-03-25T05:37:20.326Z,986.04
2023-03-25T05:38:20.308Z,986.11
2023-03-25T05:39:20.295Z,986.12
2023-03-25T05:40:20.276Z,986.14
2023-03-25T05:41:20.260Z,986.12
2023-03-25T05:42:20.241Z,986.14
2023-03-25T05:43:20.221Z,986.19
2023-03-25T05:44:20.205Z,986.12
2023-03-25T05:45:20.188Z,986.15
2023-03-25T05:46:20.196Z,986.14
2023-03-25T05:47:20.174Z,986.22
2023-03-25T05:48:20.133Z,986.14
2023-03-25T05:49:20.120Z,986.14
2023-03-25T05:50:20.114Z,986.07
2023-03-25T05:51:20.093Z,986.17
2023-03-25T05:52:20.109Z,986.06
2023-03-25T05:53:20.047Z,986.12
2023-03-25T05:54:20.037Z,986.14
2023-03-25T05:55:20.977Z,986.09
2023-03-25T05:56:20.001Z,986.12
2023-03-25T05:57:19.984Z,986.11
2023-03-25T05:58:19.987Z,986.09
2023-03-25T05:59:19.950Z,986.10
2023-03-25T06:00:19.947Z,986.19
2023-03-25T06:01:31.885Z,986.20
2023-03-25T06:02:19.936Z,986.17
2023-03-25T06:03:19.930Z,986.15
2023-03-25T06:04:19.895Z,986.25
2023-03-25T06:05:19.849Z,986.28
2023-03-25T06:06:19.830Z,986.27
2023-03-25T06:07:19.852Z,986.24
2023-03-25T06:08:19.794Z,986.30
2023-03-25T06:09:19.784Z,986.21
2023-03-25T06:10:19.761Z,986.29
2023-03-25T06:11:19.751Z,986.33
2023-03-25T06:12:19.729Z,986.33
2023-03-25T06:13:19.714Z,986.30
2023-03-25T06:14:19.693Z,986.24
2023-03-25T06:15:19.676Z,986.26
2023-03-25T06:16:19.675Z,986.32
2023-03-25T06:17:19.639Z,986.31
2023-03-25T06:18:19.633Z,986.30
2023-03-25T06:19:19.607Z,986.36
2023-03-25T06:20:19.597Z,986.35
2023-03-25T06:21:19.601Z,986.40
2023-03-25T06:22:19.585Z,986.36
2023-03-25T06:23:20.303Z,986.39
2023-03-25T06:24:19.525Z,986.37
2023-03-25T06:25:19.523Z,986.37
2023-03-25T06:26:19.493Z,986.28
2023-03-25T06:27:19.467Z,986.36
2023-03-25T06:28:19.454Z,986.35
2023-03-25T06:29:19.435Z,986.45
2023-03-25T06:30:19.431Z,986.49
2023-03-25T06:31:19.484Z,986.51
2023-03-25T06:32:19.386Z,986.40
2023-03-25T06:33:42.672Z,986.38
2023-03-25T06:34:19.351Z,986.37
2023-03-25T06:35:19.336Z,986.42
2023-03-25T06:36:19.368Z,986.44
2023-03-25T06:37:19.311Z,986.46
2023-03-25T06:38:19.292Z,986.47
2023-03-25T06:39:19.265Z,986.53
2023-03-25T06:40:19.248Z,986.52
2023-03-25T06:41:19.232Z,986.59
2023-03-25T06:42:19.214Z,986.56
2023-03-25T06:43:19.204Z,986.52
2023-03-25T06:44:24.446Z,986.54
2023-03-25T06:45:19.163Z,986.58
2023-03-25T06:46:19.241Z,986.59
2023-03-25T06:47:19.134Z,986.60
2023-03-25T06:48:19.112Z,986.65
2023-03-25T06:49:19.097Z,986.63
2023-03-25T06:50:19.083Z,986.68
2023-03-25T06:51:19.067Z,986.75
2023-03-25T06:52:19.050Z,986.70
2023-03-25T06:53:19.064Z,986.71
2023-03-25T06:54:19.016Z,986.65
2023-03-25T06:55:19.004Z,986.66
2023-03-25T06:56:18.981Z,986.61
2023-03-25T06:57:18.982Z,986.61
2023-03-25T06:58:18.953Z,986.60
2023-03-25T06:59:18.927Z,986.61
2023-03-25T07:00:18.911Z,986.56
2023-03-25T07:01:18.991Z,986.60
2023-03-25T07:02:18.877Z,986.58
2023-03-25T07:03:18.862Z,986.57
2023-03-25T07:04:19.684Z,986.57
2023-03-25T07:05:18.853Z,986.56
2023-03-25T07:06:18.817Z,986.50
2023-03-25T07:07:18.798Z,986.45
2023-03-25T07:08:18.792Z,986.42
2023-03-25T07:09:18.799Z,986.43
2023-03-25T07:10:18.750Z,986.43
2023-03-25T07:11:18.732Z,986.52
2023-03-25T07:12:18.722Z,986.49
2023-03-25T07:13:18.709Z,986.51
2023-03-25T07:14:18.693Z,986.52
2023-03-25T07:15:18.667Z,986.54
2023-03-25T07:16:18.691Z,986.54
2023-03-25T07:17:18.644Z,986.54
2023-03-25T07:18:18.615Z,986.60
2023-03-25T07:19:18.603Z,986.54
2023-03-25T07:20:18.584Z,986.49
2023-03-25T07:21:18.572Z,986.50
2023-03-25T07:22:18.568Z,986.51
2023-03-25T07:23:18.540Z,986.52
2023-03-25T07:24:18.530Z,986.51
2023-03-25T07:25:18.515Z,986.47
2023-03-25T07:26:18.495Z,986.44
2023-03-25T07:27:18.472Z,986.41
2023-03-25T07:28:18.460Z,986.45
2023-03-25T07:29:18.445Z,986.44
2023-03-25T07:30:18.422Z,986.39
2023-03-25T07:31:18.441Z,986.54
2023-03-25T07:32:18.412Z,986.43
2023-03-25T07:33:18.375Z,986.50
2023-03-25T07:34:18.357Z,986.48
2023-03-25T07:35:18.366Z,986.51
2023-03-25T07:36:18.334Z,986.61
2023-03-25T07:37:18.315Z,986.53
2023-03-25T07:38:18.297Z,986.51
2023-03-25T07:39:18.282Z,986.51
2023-03-25T07:40:18.277Z,986.50
2023-03-25T07:41:18.253Z,986.60
2023-03-25T07:42:18.230Z,986.62
2023-03-25T07:43:18.282Z,986.59
2023-03-25T07:44:18.340Z,986.43
2023-03-25T07:45:18.202Z,986.48
2023-03-25T07:46:18.244Z,986.46
2023-03-25T13:28:05.863Z,986.16
2023-03-25T13:29:05.564Z,986.18
2023-03-25T15:37:45.670Z,985.91
2023-03-25T15:38:35.565Z,985.96
2023-03-25T15:40:40.295Z,985.92
2023-03-25T15:41:40.164Z,985.92
2023-03-25T15:43:50.204Z,985.94
2023-03-25T15:44:44.229Z,985.94
2023-03-25T20:08:15.734Z,987.93
2023-03-25T20:09:13.912Z,987.95
2023-03-25T20:11:20.577Z,987.93
2023-03-25T20:12:20.194Z,987.93
2023-03-25T20:14:24.579Z,987.91
2023-03-25T20:15:23.918Z,987.82
2023-03-25T20:17:30.363Z,987.83
2023-03-25T20:18:28.226Z,987.85
2023-03-25T20:19:28.171Z,987.72
2023-03-25T20:20:28.960Z,987.77
2023-03-25T20:21:27.992Z,987.87
2023-03-25T20:22:27.972Z,987.85
2023-03-25T20:23:27.967Z,987.81
2023-03-25T20:24:27.934Z,987.81
2023-03-25T20:25:27.921Z,987.85
2023-03-25T20:26:28.148Z,987.80
2023-03-25T20:27:27.888Z,987.82
2023-03-25T20:28:27.939Z,987.80
2023-03-25T20:29:27.911Z,987.83
2023-03-25T20:30:27.843Z,987.86
2023-03-25T20:31:27.838Z,987.80
2023-03-25T20:32:37.769Z,987.83
2023-03-25T20:33:27.829Z,987.79
2023-03-25T20:34:27.776Z,987.77
2023-03-25T20:35:27.793Z,987.83
2023-03-25T20:36:27.735Z,987.71
2023-03-25T20:37:27.722Z,987.76
2023-03-25T20:38:27.704Z,987.77
2023-03-25T20:39:27.939Z,987.73
2023-03-25T20:40:37.517Z,987.76
2023-03-25T20:41:27.654Z,987.68
2023-03-25T20:42:27.638Z,987.63
2023-03-25T20:43:27.637Z,987.65
2023-03-25T20:44:27.604Z,987.54
2023-03-25T20:45:27.722Z,987.64
2023-03-25T20:46:27.676Z,987.66
2023-03-25T20:47:27.570Z,987.62
2023-03-25T20:48:27.547Z,987.67
2023-03-25T20:49:27.524Z,987.75
2023-03-25T20:50:27.530Z,987.73
2023-03-25T20:51:27.488Z,987.70
2023-03-25T20:52:27.467Z,987.73
2023-03-25T20:53:27.464Z,987.67
2023-03-25T20:54:27.437Z,987.74
2023-03-25T20:55:27.425Z,987.69
2023-03-25T20:56:27.412Z,987.66
2023-03-25T20:57:27.385Z,987.63
2023-03-25T20:58:27.372Z,987.64
2023-03-25T20:59:27.398Z,987.59
2023-03-25T21:00:27.372Z,987.71
2023-03-25T21:01:27.322Z,987.69
2023-03-25T21:02:27.397Z,987.70
2023-03-25T21:03:27.294Z,987.65
2023-03-25T21:04:27.272Z,987.61
2023-03-25T21:05:27.283Z,987.57
2023-03-25T21:06:28.590Z,987.57
2023-03-25T21:07:27.217Z,987.57
2023-03-25T21:08:27.201Z,987.63
2023-03-25T21:09:27.185Z,987.55
2023-03-25T21:10:27.194Z,987.59
2023-03-25T21:11:27.158Z,987.66
2023-03-25T21:12:40.700Z,987.61
2023-03-25T21:13:27.116Z,987.66
2023-03-25T21:14:27.109Z,987.61
2023-03-25T21:15:27.083Z,987.55
2023-03-25T21:16:27.120Z,987.69
2023-03-25T21:17:27.069Z,987.64
2023-03-25T21:18:27.032Z,987.62
2023-03-25T21:19:27.018Z,987.70
2023-03-25T21:20:27.000Z,987.72
2023-03-25T21:21:27.002Z,987.68
2023-03-25T21:22:26.965Z,987.65
2023-03-25T21:23:26.968Z,987.70
2023-03-25T21:24:26.929Z,987.72
2023-03-25T21:25:26.917Z,987.73
2023-03-25T21:26:26.896Z,987.75
2023-03-25T21:27:38.838Z,987.71
2023-03-25T21:28:26.861Z,987.75
2023-03-25T21:29:26.853Z,987.78
2023-03-25T21:30:26.824Z,987.78
2023-03-25T21:31:26.838Z,987.81
2023-03-25T21:32:26.829Z,987.85
2023-03-25T21:33:26.810Z,987.91
2023-03-25T21:34:26.767Z,987.92
2023-03-25T21:35:26.774Z,987.88
2023-03-25T21:36:26.729Z,987.92
2023-03-25T21:37:26.734Z,987.91
2023-03-25T21:38:28.530Z,987.90
2023-03-25T21:39:26.683Z,987.88
2023-03-25T21:40:26.672Z,987.90
2023-03-25T21:41:27.563Z,987.90
2023-03-25T21:42:26.633Z,987.81
2023-03-25T21:43:26.675Z,987.87
2023-03-25T21:44:26.594Z,987.93
2023-03-25T21:45:26.577Z,987.87
2023-03-25T21:46:26.588Z,987.92
2023-03-25T21:47:26.564Z,987.78
2023-03-25T21:48:26.538Z,987.79
2023-03-25T21:49:26.538Z,987.83
2023-03-25T21:50:26.507Z,987.82
2023-03-25T21:51:26.564Z,987.86
2023-03-25T21:52:26.480Z,987.91
2023-03-25T21:53:26.452Z,987.91
2023-03-25T21:54:26.445Z,987.94
2023-03-25T21:55:26.410Z,987.87
2023-03-25T21:56:26.402Z,987.90
2023-03-25T21:57:26.378Z,987.90
2023-03-25T21:58:26.358Z,987.94
2023-03-25T21:59:26.370Z,987.96
2023-03-25T22:00:26.320Z,987.93
2023-03-25T22:01:26.345Z,987.91
2023-03-25T22:02:26.296Z,987.94
2023-03-25T22:03:26.321Z,988.00
2023-03-25T22:04:26.286Z,987.96
2023-03-25T22:05:26.251Z,988.00
2023-03-25T22:06:26.233Z,988.07
2023-03-25T22:07:26.229Z,988.03
2023-03-25T22:08:26.188Z,988.09
2023-03-25T22:09:26.188Z,988.09
2023-03-25T22:10:26.153Z,988.15
2023-03-25T22:11:26.156Z,988.12
2023-03-25T22:12:26.126Z,988.08
2023-03-25T22:13:26.102Z,988.18
2023-03-25T22:14:26.090Z,988.18
2023-03-25T22:15:26.074Z,988.18
2023-03-25T22:16:26.161Z,988.15
2023-03-25T22:17:26.066Z,988.17
2023-03-25T22:18:26.024Z,988.17
2023-03-25T22:19:26.001Z,988.14
2023-03-25T22:20:25.990Z,988.10
2023-03-25T22:21:25.972Z,988.15
2023-03-25T22:22:25.956Z,988.10
2023-03-25T22:23:25.956Z,988.16
2023-03-25T22:24:25.932Z,988.14
2023-03-25T22:25:25.910Z,988.13
2023-03-25T22:26:25.897Z,988.24
2023-03-25T22:27:25.867Z,988.21
2023-03-25T22:28:25.854Z,988.25
2023-03-25T22:29:25.830Z,988.21
2023-03-25T22:30:25.825Z,988.27
2023-03-25T22:31:26.049Z,988.26
2023-03-25T22:32:25.874Z,988.28
2023-03-25T22:33:25.772Z,988.34
2023-03-25T22:34:25.783Z,988.30
2023-03-25T22:35:25.738Z,988.27
2023-03-25T22:36:25.750Z,988.24
2023-03-25T22:37:25.702Z,988.24
2023-03-25T22:38:25.680Z,988.20
2023-03-25T22:39:25.689Z,988.21
2023-03-25T22:40:25.667Z,988.23
2023-03-25T22:41:25.679Z,988.21
2023-03-25T22:42:25.641Z,988.19
2023-03-25T22:43:25.601Z,988.16
2023-03-25T22:44:25.585Z,988.17
2023-03-25T22:45:25.602Z,988.16
2023-03-25T22:46:25.626Z,988.16
2023-03-25T22:47:25.594Z,988.12
2023-03-25T22:48:25.522Z,988.14
2023-03-25T22:49:25.498Z,988.13
2023-03-25T22:50:25.484Z,988.11
2023-03-25T22:51:25.470Z,988.11
2023-03-25T22:52:25.448Z,988.10
2023-03-25T22:53:25.440Z,988.12
2023-03-25T22:54:25.451Z,988.15
2023-03-25T22:55:25.397Z,988.14
2023-03-25T22:56:25.401Z,988.18
2023-03-25T22:57:25.362Z,988.18
2023-03-25T22:58:25.338Z,988.17
2023-03-25T22:59:25.328Z,988.18
2023-03-25T23:00:25.318Z,988.21
2023-03-25T23:01:25.312Z,988.19
2023-03-25T23:02:25.345Z,988.16
2023-03-25T23:03:25.313Z,988.20
2023-03-25T23:04:25.255Z,988.17
2023-03-25T23:05:25.252Z,988.27
2023-03-25T23:06:25.221Z,988.23
2023-03-25T23:07:25.221Z,988.23
2023-03-25T23:08:25.184Z,988.25
2023-03-25T23:09:25.215Z,988.23
2023-03-25T23:10:25.151Z,988.22
2023-03-25T23:11:25.137Z,988.22
2023-03-25T23:12:25.116Z,988.26
2023-03-25T23:13:25.124Z,988.24
2023-03-25T23:14:25.095Z,988.25
2023-03-25T23:15:25.116Z,988.22
2023-03-25T23:16:25.086Z,988.26
2023-03-25T23:17:25.081Z,988.26
2023-03-25T23:18:25.028Z,988.26
2023-03-25T23:19:25.090Z,988.26
2023-03-25T23:20:24.998Z,988.24
2023-03-25T23:21:24.983Z,988.23
2023-03-25T23:22:25.005Z,988.23
2023-03-25T23:23:24.959Z,988.28
2023-03-25T23:24:24.939Z,988.34
2023-03-25T23:25:24.911Z,988.26
2023-03-25T23:26:25.051Z,988.23
2023-03-25T23:27:24.892Z,988.17
2023-03-25T23:28:24.865Z,988.16
2023-03-25T23:29:24.860Z,988.17
2023-03-25T23:30:24.826Z,988.17
2023-03-25T23:31:24.911Z,988.15
2023-03-25T23:32:24.873Z,988.19
2023-03-25T23:33:24.783Z,988.17
2023-03-25T23:34:24.768Z,988.21
2023-03-25T23:35:24.760Z,988.19
2023-03-25T23:36:24.727Z,988.27
2023-03-25T23:37:24.709Z,988.26
2023-03-25T23:38:24.693Z,988.21
2023-03-25T23:39:24.678Z,988.24
2023-03-25T23:40:24.659Z,988.22
2023-03-25T23:41:24.659Z,988.20
2023-03-25T23:42:34.654Z,988.27
2023-03-25T23:43:24.610Z,988.22
2023-03-25T23:44:24.594Z,988.26
2023-03-25T23:45:24.581Z,988.24
2023-03-25T23:46:24.618Z,988.31
2023-03-25T23:47:24.580Z,988.31
2023-03-25T23:48:24.529Z,988.30
2023-03-25T23:49:24.514Z,988.33
2023-03-25T23:50:24.492Z,988.32
2023-03-25T23:51:24.479Z,988.33
2023-03-25T23:52:24.459Z,988.37
2023-03-25T23:53:24.457Z,988.29
2023-03-25T23:54:24.423Z,988.28
2023-03-25T23:55:24.409Z,988.25
2023-03-25T23:56:24.389Z,988.26
2023-03-25T23:57:24.375Z,988.24
2023-03-25T23:58:25.378Z,988.30
2023-03-25T23:59:24.344Z,988.32
